createdAt,value
2023-02-27T00:00:42.822Z,77.30
2023-02-27T00:01:31.432Z,76.99
2023-02-27T00:02:18.566Z,76.81
2023-02-27T00:03:05.733Z,76.63
2023-02-27T00:03:52.863Z,76.64
2023-02-27T00:04:40.064Z,76.69
2023-02-27T00:05:27.133Z,76.90
2023-02-27T00:06:14.217Z,76.87
2023-02-27T00:07:01.327Z,76.85
2023-02-27T00:07:48.502Z,76.77
2023-02-27T00:08:35.512Z,76.91
2023-02-27T00:09:22.615Z,76.95
2023-02-27T00:10:10.793Z,76.81
2023-02-27T00:10:57.883Z,76.90
2023-02-27T00:11:45.413Z,77.03
2023-02-27T00:12:37.924Z,76.91
2023-02-27T00:13:24.974Z,76.65
2023-02-27T00:14:12.034Z,75.33
2023-02-27T00:14:59.020Z,74.89
2023-02-27T00:15:47.617Z,74.95
2023-02-27T00:16:34.866Z,74.99
2023-02-27T00:17:21.973Z,75.15
2023-02-27T00:18:08.957Z,74.83
2023-02-27T00:18:57.425Z,74.94
2023-02-27T00:19:44.497Z,75.11
2023-02-27T00:20:32.612Z,75.37
2023-02-27T00:21:19.743Z,75.63
2023-02-27T00:22:06.740Z,74.60
2023-02-27T00:22:53.902Z,74.43
2023-02-27T00:23:40.912Z,74.56
2023-02-27T00:24:28.080Z,74.65
2023-02-27T00:25:15.807Z,74.42
2023-02-27T00:26:02.891Z,74.21
2023-02-27T00:26:49.982Z,74.25
2023-02-27T00:27:37.385Z,73.34
2023-02-27T00:28:24.458Z,73.15
2023-02-27T00:29:11.887Z,73.07
2023-02-27T00:29:59.550Z,73.29
2023-02-27T00:30:46.657Z,72.88
2023-02-27T00:31:34.963Z,72.20
2023-02-27T00:32:22.011Z,72.47
2023-02-27T00:33:09.424Z,72.75
2023-02-27T00:33:56.721Z,72.79
2023-02-27T00:34:44.019Z,72.25
2023-02-27T00:35:31.229Z,72.20
2023-02-27T00:36:18.206Z,72.58
2023-02-27T00:37:05.214Z,72.72
2023-02-27T00:37:52.301Z,72.21
2023-02-27T00:38:39.284Z,72.62
2023-02-27T00:39:26.318Z,72.71
2023-02-27T00:40:13.612Z,72.67
2023-02-27T00:41:00.691Z,72.52
2023-02-27T00:41:47.724Z,72.04
2023-02-27T00:42:35.321Z,72.24
2023-02-27T00:43:22.646Z,72.11
2023-02-27T00:44:09.660Z,72.81
2023-02-27T00:44:56.698Z,72.73
2023-02-27T00:45:43.832Z,72.69
2023-02-27T00:46:30.871Z,72.54
2023-02-27T00:47:17.829Z,71.55
2023-02-27T00:48:04.846Z,71.56
2023-02-27T00:48:52.235Z,71.10
2023-02-27T00:49:39.190Z,71.38
2023-02-27T00:50:26.267Z,71.02
2023-02-27T00:51:13.286Z,70.73
2023-02-27T00:52:00.286Z,70.73
2023-02-27T00:52:47.307Z,70.77
2023-02-27T00:53:34.358Z,70.64
2023-02-27T00:54:21.407Z,70.54
2023-02-27T00:55:09.297Z,70.70
2023-02-27T00:55:56.482Z,70.77
2023-02-27T00:56:43.455Z,71.12
2023-02-27T00:57:31.026Z,71.08
2023-02-27T00:58:18.049Z,71.26
2023-02-27T00:59:05.005Z,71.78
2023-02-27T00:59:52.281Z,71.81
2023-02-27T01:00:39.609Z,71.75
2023-02-27T01:01:26.938Z,71.76
2023-02-27T01:02:14.312Z,71.95
2023-02-27T01:03:01.437Z,71.82
2023-02-27T01:03:48.429Z,71.73
2023-02-27T01:04:35.567Z,71.81
2023-02-27T01:05:22.781Z,70.65
2023-02-27T01:06:09.799Z,70.88
2023-02-27T01:06:56.894Z,70.94
2023-02-27T01:07:43.964Z,71.21
2023-02-27T01:08:30.982Z,71.42
2023-02-27T01:09:17.942Z,71.92
2023-02-27T01:10:06.322Z,71.78
2023-02-27T01:10:55.692Z,71.62
2023-02-27T01:11:42.771Z,72.12
2023-02-27T01:12:29.854Z,71.68
2023-02-27T01:13:16.907Z,70.98
2023-02-27T01:14:04.023Z,71.11
2023-02-27T01:14:51.263Z,70.83
2023-02-27T01:15:38.367Z,71.00
2023-02-27T01:16:25.565Z,70.51
2023-02-27T01:17:12.662Z,70.13
2023-02-27T01:18:00.173Z,69.97
2023-02-27T01:18:47.224Z,70.01
2023-02-27T01:19:34.360Z,70.15
2023-02-27T01:20:21.936Z,70.29
2023-02-27T01:21:09.128Z,70.40
2023-02-27T01:21:56.277Z,70.33
2023-02-27T01:22:43.443Z,70.09
2023-02-27T01:23:30.604Z,69.84
2023-02-27T01:24:20.034Z,70.26
2023-02-27T01:25:07.723Z,70.54
2023-02-27T01:25:54.692Z,70.72
2023-02-27T01:26:41.997Z,70.37
2023-02-27T01:27:29.033Z,70.67
2023-02-27T01:28:17.255Z,70.22
2023-02-27T01:29:06.410Z,70.44
2023-02-27T01:29:53.666Z,70.45
2023-02-27T01:30:41.709Z,70.67
2023-02-27T01:31:29.021Z,70.38
2023-02-27T01:32:16.689Z,70.23
2023-02-27T01:33:03.827Z,70.17
2023-02-27T01:33:51.017Z,69.98
2023-02-27T01:34:38.095Z,70.26
2023-02-27T01:35:25.204Z,70.43
2023-02-27T01:36:12.357Z,70.53
2023-02-27T01:36:59.367Z,70.96
2023-02-27T01:37:46.417Z,70.95
2023-02-27T01:38:33.484Z,71.23
2023-02-27T01:39:20.901Z,70.93
2023-02-27T01:40:09.114Z,70.30
2023-02-27T01:40:57.537Z,70.43
2023-02-27T01:41:44.684Z,70.54
2023-02-27T01:42:31.787Z,70.67
2023-02-27T01:43:20.455Z,70.61
2023-02-27T01:44:10.681Z,70.51
2023-02-27T01:45:12.893Z,70.53
2023-02-27T01:46:01.283Z,70.46
2023-02-27T01:46:48.355Z,70.99
2023-02-27T01:47:36.202Z,70.84
2023-02-27T01:48:35.552Z,70.93
2023-02-27T01:49:28.173Z,70.92
2023-02-27T01:50:16.066Z,71.18
2023-02-27T01:51:08.028Z,71.68
2023-02-27T01:52:03.338Z,71.94
2023-02-27T01:52:55.102Z,71.25
2023-02-27T01:53:44.302Z,71.48
2023-02-27T01:54:32.929Z,71.16
2023-02-27T01:55:20.638Z,70.30
2023-02-27T01:56:20.634Z,70.50
2023-02-27T01:57:08.224Z,70.69
2023-02-27T01:57:55.359Z,70.95
2023-02-27T01:58:43.112Z,71.07
2023-02-27T01:59:30.593Z,71.08
2023-02-27T02:00:18.002Z,71.11
2023-02-27T02:01:05.524Z,70.83
2023-02-27T02:01:52.742Z,70.80
2023-02-27T02:02:43.072Z,70.46
2023-02-27T02:03:50.802Z,70.86
2023-02-27T02:04:39.974Z,70.62
2023-02-27T02:05:27.324Z,69.96
2023-02-27T02:06:14.394Z,70.29
2023-02-27T02:07:11.805Z,70.61
2023-02-27T02:07:59.242Z,71.28
2023-02-27T02:08:48.457Z,71.30
2023-02-27T02:09:39.424Z,70.81
2023-02-27T02:10:27.422Z,71.13
2023-02-27T02:11:16.383Z,71.41
2023-02-27T02:12:04.683Z,71.04
2023-02-27T02:12:51.808Z,71.02
2023-02-27T02:13:40.943Z,71.10
2023-02-27T02:14:28.000Z,71.54
2023-02-27T02:15:15.283Z,71.71
2023-02-27T02:16:40.534Z,72.00
2023-02-27T02:17:49.431Z,71.58
2023-02-27T02:19:11.323Z,71.69
2023-02-27T02:20:01.258Z,71.61
2023-02-27T02:21:06.878Z,71.74
2023-02-27T02:22:05.587Z,71.62
2023-02-27T02:23:01.904Z,71.36
2023-02-27T02:23:54.832Z,71.79
2023-02-27T02:25:00.536Z,71.63
2023-02-27T02:26:12.036Z,71.87
2023-02-27T02:27:35.443Z,71.78
2023-02-27T02:28:36.053Z,71.70
2023-02-27T02:29:53.161Z,71.84
2023-02-27T02:31:01.097Z,72.05
2023-02-27T02:32:06.587Z,72.50
2023-02-27T02:33:27.382Z,71.98
2023-02-27T02:34:26.638Z,72.13
2023-02-27T02:35:41.184Z,72.03
2023-02-27T02:37:01.935Z,71.76
2023-02-27T02:38:07.163Z,71.90
2023-02-27T02:39:03.170Z,71.87
2023-02-27T02:40:05.390Z,72.25
2023-02-27T02:41:08.938Z,72.64
2023-02-27T02:42:03.696Z,72.86
2023-02-27T02:43:03.606Z,73.04
2023-02-27T02:44:14.642Z,73.22
2023-02-27T02:45:01.450Z,73.14
2023-02-27T02:46:13.993Z,72.82
2023-02-27T02:47:16.403Z,72.81
2023-02-27T02:48:33.322Z,72.82
2023-02-27T02:49:27.112Z,73.21
2023-02-27T02:50:28.193Z,73.20
2023-02-27T02:51:33.185Z,73.29
2023-02-27T02:52:48.003Z,73.78
2023-02-27T02:53:57.250Z,73.91
2023-02-27T02:54:50.404Z,73.86
2023-02-27T02:55:42.974Z,73.84
2023-02-27T02:57:02.224Z,74.25
2023-02-27T02:58:07.422Z,74.59
2023-02-27T02:59:29.522Z,75.83
2023-02-27T03:00:19.756Z,75.86
2023-02-27T03:01:15.675Z,75.56
2023-02-27T03:02:09.696Z,75.26
2023-02-27T03:03:00.923Z,75.32
2023-02-27T03:04:10.936Z,75.28
2023-02-27T03:05:01.276Z,75.27
2023-02-27T03:05:57.392Z,75.08
2023-02-27T03:07:26.225Z,75.19
2023-02-27T03:08:17.712Z,75.31
2023-02-27T03:09:19.092Z,75.92
2023-02-27T03:10:16.120Z,75.83
2023-02-27T03:11:04.690Z,75.81
2023-02-27T03:11:52.719Z,76.66
2023-02-27T03:12:42.137Z,77.47
2023-02-27T03:13:38.911Z,78.20
2023-02-27T03:14:31.395Z,78.44
2023-02-27T03:15:39.079Z,78.58
2023-02-27T03:16:30.355Z,78.38
2023-02-27T03:17:23.850Z,78.34
2023-02-27T03:18:18.874Z,78.33
2023-02-27T03:19:14.705Z,78.56
2023-02-27T03:20:07.772Z,78.78
2023-02-27T03:21:05.903Z,78.82
2023-02-27T03:22:10.282Z,79.06
2023-02-27T03:23:00.344Z,79.09
2023-02-27T03:23:48.751Z,79.24
2023-02-27T03:24:38.269Z,79.10
2023-02-27T03:25:26.854Z,79.63
2023-02-27T03:26:19.949Z,80.29
2023-02-27T03:27:08.682Z,80.57
2023-02-27T03:27:59.138Z,80.40
2023-02-27T03:28:59.997Z,80.88
2023-02-27T03:29:58.859Z,81.02
2023-02-27T03:31:01.831Z,80.84
2023-02-27T03:31:56.982Z,80.57
2023-02-27T03:32:53.978Z,81.30
2023-02-27T03:33:56.009Z,81.67
2023-02-27T03:34:43.525Z,81.66
2023-02-27T03:35:41.229Z,81.25
2023-02-27T03:37:06.811Z,81.72
2023-02-27T03:38:06.856Z,81.67
2023-02-27T03:39:05.956Z,81.18
2023-02-27T03:40:06.702Z,80.91
2023-02-27T03:41:14.646Z,80.95
2023-02-27T03:42:14.790Z,80.90
2023-02-27T03:43:32.477Z,80.80
2023-02-27T03:44:37.726Z,80.80
2023-02-27T03:45:38.825Z,80.76
2023-02-27T03:46:27.386Z,81.09
2023-02-27T03:47:14.426Z,80.95
2023-02-27T03:48:02.505Z,80.97
2023-02-27T03:48:49.646Z,80.74
2023-02-27T03:49:36.657Z,80.72
2023-02-27T03:50:23.708Z,81.15
2023-02-27T03:51:15.251Z,81.23
2023-02-27T03:52:02.224Z,81.34
2023-02-27T03:52:49.332Z,81.50
2023-02-27T03:53:46.227Z,81.55
2023-02-27T03:54:37.460Z,81.52
2023-02-27T03:55:33.623Z,81.51
2023-02-27T03:56:25.828Z,81.69
2023-02-27T03:57:15.475Z,81.59
2023-02-27T03:58:02.712Z,81.22
2023-02-27T03:58:50.063Z,81.07
2023-02-27T03:59:38.275Z,81.66
2023-02-27T04:00:26.691Z,82.27
2023-02-27T04:01:13.688Z,83.17
2023-02-27T04:02:03.858Z,83.89
2023-02-27T04:02:52.469Z,83.99
2023-02-27T04:03:46.702Z,83.64
2023-02-27T04:04:34.071Z,83.26
2023-02-27T04:05:21.633Z,83.33
2023-02-27T04:06:27.346Z,84.59
2023-02-27T04:07:26.752Z,87.59
2023-02-27T04:08:51.958Z,87.16
2023-02-27T04:10:00.476Z,86.63
2023-02-27T04:11:13.037Z,85.67
2023-02-27T04:12:24.226Z,84.92
2023-02-27T04:13:19.847Z,85.18
2023-02-27T04:14:20.267Z,85.18
2023-02-27T04:15:31.687Z,84.88
2023-02-27T04:16:38.156Z,85.01
2023-02-27T04:17:27.201Z,84.58
2023-02-27T04:18:48.177Z,85.39
2023-02-27T04:19:38.286Z,85.57
2023-02-27T04:21:22.537Z,85.69
2023-02-27T04:22:34.191Z,84.95
2023-02-27T04:23:46.017Z,84.53
2023-02-27T04:24:38.084Z,84.06
2023-02-27T04:25:33.052Z,84.67
2023-02-27T04:26:34.026Z,85.33
2023-02-27T04:27:36.411Z,85.56
2023-02-27T04:28:44.989Z,85.38
2023-02-27T04:29:43.159Z,85.10
2023-02-27T04:30:56.280Z,84.58
2023-02-27T04:32:25.908Z,84.48
2023-02-27T04:33:31.850Z,84.42
2023-02-27T04:34:43.948Z,84.53
2023-02-27T04:35:37.306Z,84.20
2023-02-27T04:36:27.205Z,84.82
2023-02-27T04:37:23.523Z,84.72
2023-02-27T04:38:14.971Z,84.23
2023-02-27T04:39:10.041Z,84.32
2023-02-27T04:40:21.097Z,83.96
2023-02-27T04:41:09.492Z,83.68
2023-02-27T04:42:02.714Z,83.69
2023-02-27T04:42:55.232Z,83.79
2023-02-27T04:43:43.068Z,83.92
2023-02-27T04:44:32.823Z,83.48
2023-02-27T04:45:22.209Z,83.43
2023-02-27T04:46:11.935Z,83.32
2023-02-27T04:47:00.176Z,83.38
2023-02-27T04:47:50.993Z,83.67
2023-02-27T04:48:45.725Z,83.50
2023-02-27T04:49:42.407Z,83.53
2023-02-27T04:50:38.222Z,83.50
2023-02-27T04:51:29.583Z,83.23
2023-02-27T04:52:21.046Z,82.89
2023-02-27T04:53:30.963Z,82.77
2023-02-27T04:54:23.058Z,83.10
2023-02-27T04:55:22.235Z,83.19
2023-02-27T04:56:13.653Z,82.95
2023-02-27T04:57:04.706Z,83.25
2023-02-27T04:57:55.349Z,83.77
2023-02-27T04:58:52.395Z,83.73
2023-02-27T04:59:43.638Z,84.10
2023-02-27T05:00:31.037Z,85.05
2023-02-27T05:01:35.381Z,84.69
2023-02-27T05:02:33.352Z,84.86
2023-02-27T05:03:25.145Z,84.54
2023-02-27T05:04:15.574Z,84.81
2023-02-27T05:05:06.908Z,85.57
2023-02-27T05:05:57.283Z,85.35
2023-02-27T05:06:45.073Z,84.96
2023-02-27T05:07:40.683Z,85.14
2023-02-27T05:08:55.140Z,85.10
2023-02-27T05:09:51.548Z,84.92
2023-02-27T05:10:49.728Z,84.65
2023-02-27T05:12:00.507Z,84.65
2023-02-27T05:12:58.033Z,84.45
2023-02-27T05:14:06.798Z,84.12
2023-02-27T05:15:28.807Z,83.71
2023-02-27T05:16:33.269Z,83.65
2023-02-27T05:17:29.782Z,83.50
2023-02-27T05:18:21.121Z,83.22
2023-02-27T05:19:08.851Z,83.39
2023-02-27T05:19:56.207Z,83.17
2023-02-27T05:20:46.921Z,83.47
2023-02-27T05:21:52.833Z,83.25
2023-02-27T05:22:59.806Z,83.34
2023-02-27T05:23:56.663Z,83.69
2023-02-27T05:24:54.718Z,83.65
2023-02-27T05:25:48.851Z,83.07
2023-02-27T05:26:50.821Z,83.07
2023-02-27T05:28:10.084Z,83.70
2023-02-27T05:29:21.833Z,83.14
2023-02-27T05:30:25.345Z,83.03
2023-02-27T05:31:16.651Z,82.62
2023-02-27T05:32:12.155Z,83.33
2023-02-27T05:33:11.742Z,83.84
2023-02-27T05:34:02.754Z,83.50
2023-02-27T05:35:22.663Z,83.30
2023-02-27T05:36:16.391Z,83.32
2023-02-27T05:37:13.173Z,84.49
2023-02-27T05:38:15.384Z,84.63
2023-02-27T05:39:06.229Z,84.51
2023-02-27T05:39:53.611Z,84.54
2023-02-27T05:41:04.174Z,84.36
2023-02-27T05:41:54.927Z,83.91
2023-02-27T05:42:50.131Z,83.83
2023-02-27T05:43:47.847Z,83.95
2023-02-27T05:44:45.789Z,84.46
2023-02-27T05:45:35.200Z,84.05
2023-02-27T05:46:27.108Z,84.09
2023-02-27T05:47:18.469Z,84.22
2023-02-27T05:48:09.444Z,84.26
2023-02-27T05:49:07.925Z,84.04
2023-02-27T05:50:18.893Z,83.93
2023-02-27T05:51:06.220Z,83.75
2023-02-27T05:51:54.958Z,83.25
2023-02-27T05:52:43.556Z,82.97
2023-02-27T05:53:34.448Z,83.98
2023-02-27T05:54:33.491Z,83.82
2023-02-27T05:55:34.570Z,83.57
2023-02-27T05:56:23.899Z,83.64
2023-02-27T05:57:15.347Z,83.47
2023-02-27T05:58:06.120Z,82.87
2023-02-27T05:58:58.709Z,82.72
2023-02-27T05:59:55.537Z,82.90
2023-02-27T06:00:54.350Z,82.93
2023-02-27T06:01:41.443Z,82.90
2023-02-27T06:02:28.558Z,83.23
2023-02-27T06:03:15.889Z,83.49
2023-02-27T06:04:03.110Z,83.86
2023-02-27T06:04:50.181Z,83.97
2023-02-27T06:05:38.166Z,83.62
2023-02-27T06:06:25.443Z,83.46
2023-02-27T06:07:15.049Z,83.27
2023-02-27T06:08:02.189Z,83.28
2023-02-27T06:08:49.198Z,84.00
2023-02-27T06:09:36.513Z,84.98
2023-02-27T06:10:23.890Z,84.89
2023-02-27T06:11:11.021Z,84.37
2023-02-27T06:11:58.394Z,84.22
2023-02-27T06:12:45.631Z,83.93
2023-02-27T06:13:32.903Z,84.05
2023-02-27T06:14:20.174Z,84.42
2023-02-27T06:15:07.862Z,84.58
2023-02-27T06:15:55.166Z,84.12
2023-02-27T06:16:42.307Z,84.12
2023-02-27T06:17:29.337Z,83.92
2023-02-27T06:18:17.511Z,83.88
2023-02-27T06:19:05.494Z,83.80
2023-02-27T06:19:52.819Z,83.50
2023-02-27T06:20:40.320Z,83.28
2023-02-27T06:21:27.222Z,82.88
2023-02-27T06:22:14.296Z,83.01
2023-02-27T06:23:01.424Z,83.09
2023-02-27T06:23:48.404Z,83.03
2023-02-27T06:24:35.673Z,82.92
2023-02-27T06:25:22.926Z,82.95
2023-02-27T06:26:14.001Z,83.26
2023-02-27T06:27:01.044Z,83.31
2023-02-27T06:27:48.892Z,83.08
2023-02-27T06:28:35.865Z,82.63
2023-02-27T06:29:22.864Z,82.64
2023-02-27T06:30:10.615Z,82.63
2023-02-27T06:30:57.824Z,83.07
2023-02-27T06:31:44.922Z,83.10
2023-02-27T06:32:31.927Z,82.98
2023-02-27T06:33:19.098Z,82.93
2023-02-27T06:34:06.171Z,83.19
2023-02-27T06:34:54.308Z,83.24
2023-02-27T06:35:41.387Z,83.01
2023-02-27T06:36:30.332Z,82.82
2023-02-27T06:37:17.608Z,83.00
2023-02-27T06:38:05.385Z,83.41
2023-02-27T06:38:52.410Z,83.09
2023-02-27T06:39:39.380Z,82.78
2023-02-27T06:40:26.671Z,82.60
2023-02-27T06:41:13.595Z,82.19
2023-02-27T06:42:00.751Z,82.30
2023-02-27T06:42:47.771Z,83.98
2023-02-27T06:43:36.827Z,84.13
2023-02-27T06:44:24.012Z,83.89
2023-02-27T06:45:12.142Z,83.28
2023-02-27T06:45:59.150Z,82.90
2023-02-27T06:46:46.219Z,82.47
2023-02-27T06:47:34.378Z,82.48
2023-02-27T06:48:21.438Z,82.85
2023-02-27T06:49:08.506Z,83.12
2023-02-27T06:49:55.555Z,83.22
2023-02-27T06:50:42.584Z,83.28
2023-02-27T06:51:29.676Z,83.37
2023-02-27T06:52:16.663Z,82.83
2023-02-27T06:53:04.526Z,82.37
2023-02-27T06:53:51.516Z,82.41
2023-02-27T06:54:38.916Z,82.31
2023-02-27T06:55:26.105Z,82.58
2023-02-27T06:56:13.313Z,82.92
2023-02-27T06:57:00.996Z,82.63
2023-02-27T06:57:48.243Z,81.88
2023-02-27T06:58:35.176Z,81.32
2023-02-27T06:59:22.159Z,81.65
2023-02-27T07:00:12.057Z,81.86
2023-02-27T07:01:02.873Z,82.10
2023-02-27T07:01:50.299Z,82.06
2023-02-27T07:02:37.319Z,82.01
2023-02-27T07:03:24.316Z,81.77
2023-02-27T07:04:15.000Z,81.23
2023-02-27T07:05:05.297Z,80.59
2023-02-27T07:05:55.328Z,80.94
2023-02-27T07:07:34.709Z,81.42
2023-02-27T07:07:49.699Z,81.69
2023-02-27T07:08:36.768Z,80.53
2023-02-27T07:09:23.790Z,80.30
2023-02-27T07:10:13.024Z,80.38
2023-02-27T07:11:00.036Z,80.17
2023-02-27T07:11:47.030Z,79.63
2023-02-27T07:12:33.957Z,79.06
2023-02-27T07:13:20.966Z,78.65
2023-02-27T07:14:08.106Z,78.86
2023-02-27T07:14:55.028Z,78.41
2023-02-27T07:15:42.159Z,78.48
2023-02-27T07:16:29.405Z,78.51
2023-02-27T07:17:16.527Z,77.68
2023-02-27T07:18:03.598Z,77.76
2023-02-27T07:18:50.612Z,77.56
2023-02-27T07:19:37.808Z,76.60
2023-02-27T07:20:25.569Z,77.05
2023-02-27T07:21:12.567Z,77.12
2023-02-27T07:21:59.915Z,76.66
2023-02-27T07:22:47.086Z,75.65
2023-02-27T07:23:34.045Z,75.20
2023-02-27T07:24:21.177Z,75.80
2023-02-27T07:25:09.139Z,75.22
2023-02-27T07:25:56.150Z,75.34
2023-02-27T07:26:43.258Z,74.53
2023-02-27T07:27:30.314Z,74.31
2023-02-27T07:28:19.671Z,73.77
2023-02-27T07:29:07.016Z,73.98
2023-02-27T07:29:54.207Z,73.79
2023-02-27T07:30:41.699Z,74.17
2023-02-27T07:31:29.084Z,74.05
2023-02-27T07:32:16.474Z,73.40
2023-02-27T07:33:03.469Z,73.86
2023-02-27T07:33:50.580Z,73.78
2023-02-27T07:34:37.680Z,73.38
2023-02-27T07:35:24.821Z,73.39
2023-02-27T07:36:11.907Z,73.19
2023-02-27T07:36:58.983Z,72.99
2023-02-27T07:37:47.805Z,72.67
2023-02-27T07:38:34.739Z,73.25
2023-02-27T07:39:21.912Z,72.43
2023-02-27T07:40:09.968Z,71.44
2023-02-27T07:40:58.915Z,72.04
2023-02-27T07:41:45.970Z,71.27
2023-02-27T07:42:32.989Z,71.17
2023-02-27T07:43:19.990Z,70.85
2023-02-27T07:44:08.920Z,70.71
2023-02-27T07:44:55.986Z,70.44
2023-02-27T07:45:43.060Z,70.44
2023-02-27T07:46:30.500Z,70.72
2023-02-27T07:47:18.032Z,70.53
2023-02-27T07:48:05.279Z,70.72
2023-02-27T07:48:52.201Z,70.37
2023-02-27T07:49:39.312Z,70.11
2023-02-27T07:50:26.338Z,69.95
2023-02-27T07:51:13.492Z,69.76
2023-02-27T07:52:00.630Z,69.85
2023-02-27T07:52:47.670Z,70.24
2023-02-27T07:53:34.721Z,68.94
2023-02-27T07:54:21.621Z,68.99
2023-02-27T07:55:10.663Z,69.09
2023-02-27T07:55:57.896Z,68.88
2023-02-27T07:56:44.884Z,68.89
2023-02-27T07:57:32.056Z,69.54
2023-02-27T07:58:19.050Z,69.57
2023-02-27T07:59:06.016Z,69.60
2023-02-27T07:59:53.000Z,69.19
2023-02-27T08:00:39.906Z,69.48
2023-02-27T08:01:27.058Z,68.15
2023-02-27T08:02:14.374Z,68.43
2023-02-27T08:03:01.513Z,67.62
2023-02-27T08:03:48.648Z,69.14
2023-02-27T08:04:35.675Z,69.32
2023-02-27T08:05:22.722Z,69.36
2023-02-27T08:06:09.791Z,68.71
2023-02-27T08:06:57.611Z,68.86
2023-02-27T08:07:44.533Z,70.27
2023-02-27T08:08:31.442Z,69.81
2023-02-27T08:09:18.513Z,69.06
2023-02-27T08:10:06.192Z,68.88
2023-02-27T08:10:53.142Z,68.96
2023-02-27T08:11:40.093Z,68.64
2023-02-27T08:12:27.057Z,68.10
2023-02-27T08:13:14.764Z,68.18
2023-02-27T08:14:02.388Z,68.29
2023-02-27T08:14:49.746Z,67.79
2023-02-27T08:15:36.662Z,68.29
2023-02-27T08:16:23.647Z,67.64
2023-02-27T08:17:10.570Z,67.13
2023-02-27T08:17:57.706Z,67.10
2023-02-27T08:18:44.708Z,67.30
2023-02-27T08:19:31.698Z,67.16
2023-02-27T08:20:22.796Z,66.87
2023-02-27T08:21:10.132Z,66.47
2023-02-27T08:21:57.051Z,66.49
2023-02-27T08:22:44.037Z,66.04
2023-02-27T08:23:34.507Z,66.29
2023-02-27T08:24:21.860Z,66.19
2023-02-27T08:25:11.411Z,65.87
2023-02-27T08:25:58.654Z,66.56
2023-02-27T08:26:45.594Z,66.02
2023-02-27T08:27:32.611Z,65.65
2023-02-27T08:28:19.565Z,64.79
2023-02-27T08:29:06.540Z,65.32
2023-02-27T08:29:53.473Z,65.56
2023-02-27T08:30:40.621Z,64.93
2023-02-27T08:31:28.002Z,64.54
2023-02-27T08:32:14.959Z,64.80
2023-02-27T08:33:02.046Z,64.19
2023-02-27T08:33:58.073Z,63.61
2023-02-27T08:34:54.855Z,63.76
2023-02-27T08:35:41.794Z,62.77
2023-02-27T08:36:28.962Z,62.85
2023-02-27T08:37:16.112Z,63.38
2023-02-27T08:38:03.058Z,63.56
2023-02-27T08:38:49.991Z,62.50
2023-02-27T08:39:36.950Z,61.95
2023-02-27T08:40:23.890Z,62.12
2023-02-27T08:41:10.870Z,62.21
2023-02-27T08:41:57.841Z,61.30
2023-02-27T08:42:44.762Z,61.48
2023-02-27T08:43:31.651Z,61.39
2023-02-27T08:44:19.672Z,61.88
2023-02-27T08:45:09.147Z,61.41
2023-02-27T08:45:56.058Z,61.48
2023-02-27T08:46:42.938Z,61.32
2023-02-27T08:47:30.048Z,60.97
2023-02-27T08:48:18.670Z,61.37
2023-02-27T08:49:05.563Z,61.38
2023-02-27T08:49:52.488Z,61.21
2023-02-27T08:50:39.398Z,61.34
2023-02-27T08:51:26.727Z,61.28
2023-02-27T08:52:13.818Z,60.64
2023-02-27T08:53:00.721Z,61.16
2023-02-27T08:53:47.652Z,60.95
2023-02-27T08:54:34.616Z,60.65
2023-02-27T08:55:21.801Z,60.50
2023-02-27T08:56:09.025Z,60.18
2023-02-27T08:56:56.092Z,60.06
2023-02-27T08:57:43.010Z,59.16
2023-02-27T08:58:29.986Z,58.05
2023-02-27T08:59:17.025Z,59.15
2023-02-27T09:00:06.931Z,59.19
2023-02-27T09:00:56.052Z,59.61
2023-02-27T09:01:43.577Z,59.05
2023-02-27T09:02:31.162Z,58.12
2023-02-27T09:03:18.236Z,58.51
2023-02-27T09:04:06.848Z,58.94
2023-02-27T09:04:53.935Z,58.75
2023-02-27T09:05:42.197Z,57.56
2023-02-27T09:06:29.587Z,56.92
2023-02-27T09:07:16.666Z,56.91
2023-02-27T09:08:04.732Z,56.95
2023-02-27T09:08:51.660Z,56.87
2023-02-27T09:09:38.556Z,56.29
2023-02-27T09:10:25.529Z,56.48
2023-02-27T09:11:12.449Z,56.71
2023-02-27T09:11:59.387Z,55.69
2023-02-27T09:12:46.328Z,55.43
2023-02-27T09:13:33.374Z,55.40
2023-02-27T09:14:20.529Z,55.96
2023-02-27T09:15:08.138Z,55.89
2023-02-27T09:15:55.081Z,55.52
2023-02-27T09:16:42.195Z,56.07
2023-02-27T09:17:29.187Z,55.41
2023-02-27T09:18:16.120Z,55.39
2023-02-27T09:19:03.168Z,54.59
2023-02-27T09:19:51.516Z,54.74
2023-02-27T09:20:40.430Z,54.35
2023-02-27T09:21:29.255Z,54.57
2023-02-27T09:22:16.148Z,55.66
2023-02-27T09:23:06.161Z,55.75
2023-02-27T09:23:53.237Z,54.93
2023-02-27T09:24:40.108Z,54.82
2023-02-27T09:25:27.942Z,54.64
2023-02-27T09:26:16.317Z,54.38
2023-02-27T09:27:03.314Z,54.51
2023-02-27T09:27:50.249Z,54.72
2023-02-27T09:28:37.887Z,54.26
2023-02-27T09:29:25.970Z,54.07
2023-02-27T09:30:13.297Z,53.46
2023-02-27T09:31:06.088Z,53.54
2023-02-27T09:31:53.571Z,52.96
2023-02-27T09:32:40.557Z,53.51
2023-02-27T09:33:29.294Z,52.63
2023-02-27T09:34:16.497Z,52.25
2023-02-27T09:35:03.468Z,53.10
2023-02-27T09:35:50.472Z,52.82
2023-02-27T09:36:37.523Z,53.37
2023-02-27T09:37:25.285Z,53.61
2023-02-27T09:38:12.528Z,53.34
2023-02-27T09:39:00.016Z,52.89
2023-02-27T09:39:47.429Z,53.09
2023-02-27T09:40:40.245Z,52.64
2023-02-27T09:42:07.239Z,51.64
2023-02-27T09:42:58.401Z,51.87
2023-02-27T09:43:48.365Z,51.84
2023-02-27T09:44:47.000Z,52.37
2023-02-27T09:45:39.548Z,51.46
2023-02-27T09:46:26.784Z,51.46
2023-02-27T09:47:26.948Z,51.11
2023-02-27T09:48:23.738Z,51.00
2023-02-27T09:49:13.159Z,50.45
2023-02-27T09:50:14.139Z,50.28
2023-02-27T09:51:01.858Z,50.16
2023-02-27T09:51:53.366Z,49.87
2023-02-27T09:52:40.402Z,50.45
2023-02-27T09:53:41.297Z,50.13
2023-02-27T09:54:29.488Z,49.63
2023-02-27T09:55:23.323Z,49.44
2023-02-27T09:56:15.998Z,48.90
2023-02-27T09:57:05.752Z,49.08
2023-02-27T09:58:13.009Z,49.27
2023-02-27T09:59:11.888Z,49.49
2023-02-27T10:00:05.271Z,49.40
2023-02-27T10:00:56.962Z,50.32
2023-02-27T10:02:09.385Z,49.01
2023-02-27T10:03:33.751Z,49.85
2023-02-27T10:04:29.756Z,49.70
2023-02-27T10:05:31.848Z,49.30
2023-02-27T10:06:43.900Z,49.53
2023-02-27T10:07:39.912Z,48.78
2023-02-27T10:08:34.322Z,48.16
2023-02-27T10:09:39.933Z,48.46
2023-02-27T10:10:55.290Z,49.18
2023-02-27T10:11:52.039Z,48.84
2023-02-27T10:12:53.740Z,49.20
2023-02-27T10:13:48.799Z,49.59
2023-02-27T10:14:52.477Z,49.52
2023-02-27T10:15:43.121Z,49.37
2023-02-27T10:16:30.373Z,49.18
2023-02-27T10:17:31.223Z,50.06
2023-02-27T10:18:30.908Z,49.35
2023-02-27T10:19:27.816Z,48.34
2023-02-27T10:20:23.132Z,49.24
2023-02-27T10:21:15.854Z,49.08
2023-02-27T10:22:06.432Z,48.60
2023-02-27T10:22:54.791Z,47.74
2023-02-27T10:24:07.786Z,47.84
2023-02-27T10:25:03.270Z,47.79
2023-02-27T10:25:51.092Z,48.21
2023-02-27T10:26:41.385Z,47.92
2023-02-27T10:27:28.336Z,48.66
2023-02-27T10:28:18.783Z,47.87
2023-02-27T10:29:19.551Z,48.54
2023-02-27T10:30:28.472Z,48.67
2023-02-27T10:31:22.470Z,48.05
2023-02-27T10:32:22.064Z,49.28
2023-02-27T10:33:21.953Z,49.65
2023-02-27T10:34:13.423Z,48.40
2023-02-27T10:35:47.721Z,49.20
2023-02-27T10:36:34.999Z,48.37
2023-02-27T10:37:24.612Z,48.48
2023-02-27T10:38:27.287Z,48.74
2023-02-27T10:39:18.095Z,48.33
2023-02-27T10:40:06.622Z,48.16
2023-02-27T10:40:55.668Z,48.14
2023-02-27T10:41:43.996Z,47.98
2023-02-27T10:42:35.404Z,48.19
2023-02-27T10:43:23.054Z,48.43
2023-02-27T10:44:11.727Z,48.25
2023-02-27T10:44:58.677Z,47.88
2023-02-27T10:45:45.734Z,47.50
2023-02-27T10:46:35.534Z,47.38
2023-02-27T10:47:26.429Z,47.08
2023-02-27T10:48:14.879Z,47.59
2023-02-27T10:49:05.714Z,47.81
2023-02-27T10:49:55.889Z,48.09
2023-02-27T10:50:53.202Z,47.73
2023-02-27T10:51:40.192Z,48.21
2023-02-27T10:52:27.562Z,47.83
2023-02-27T10:53:23.382Z,47.25
2023-02-27T10:54:19.046Z,47.50
2023-02-27T10:55:22.089Z,47.53
2023-02-27T10:56:16.377Z,48.18
2023-02-27T10:57:06.950Z,47.13
2023-02-27T10:57:56.097Z,47.07
2023-02-27T10:58:43.053Z,46.81
2023-02-27T10:59:39.584Z,46.88
2023-02-27T11:00:44.254Z,47.06
2023-02-27T11:01:45.671Z,47.84
2023-02-27T11:02:37.576Z,47.23
2023-02-27T11:03:29.043Z,46.58
2023-02-27T11:04:24.876Z,46.58
2023-02-27T11:05:33.469Z,47.42
2023-02-27T11:06:24.030Z,47.04
2023-02-27T11:07:12.525Z,45.85
2023-02-27T11:08:23.779Z,46.58
2023-02-27T11:09:25.691Z,46.06
2023-02-27T11:10:12.557Z,46.00
2023-02-27T11:11:11.690Z,45.55